Time;durP1;ratioP1;P1;durP2;ratioP2;P2;SDS_P1;SDS_P2;PMS_P1;PMS_P2;Temp;Humidity;BMP_temperature;BMP_pressure;BME280_temperature;BME280_humidity;BME280_pressure;Samples;Min_cycle;Max_cycle;Signal;HPM_P1;HPM_P2
2022/04/30 00:02:15;;;;;;;11.00;8.00;;;;;;;9.14;97.96;96652.19;5002758;28;20160;-78
2022/04/30 00:04:46;;;;;;;12.00;8.93;;;;;;;9.17;97.80;96645.81;5012223;28;20026;-78
2022/04/30 00:07:14;;;;;;;11.87;7.80;;;;;;;9.09;98.50;96641.28;5008913;28;20033;-78
2022/04/30 00:09:39;;;;;;;10.83;8.20;;;;;;;9.03;99.77;96631.34;5011327;28;20487;-78
2022/04/30 00:12:06;;;;;;;11.43;8.27;;;;;;;8.95;100.00;96642.53;5011080;28;20061;-78
2022/04/30 00:14:32;;;;;;;10.10;7.43;;;;;;;9.03;99.71;96641.03;5010850;28;20022;-77
2022/04/30 00:16:57;;;;;;;11.63;7.83;;;;;;;9.03;98.13;96639.22;5011095;28;20034;-78
2022/04/30 00:19:24;;;;;;;10.83;7.83;;;;;;;9.04;98.27;96638.25;5008008;28;20094;-78
2022/04/30 00:21:51;;;;;;;13.20;7.40;;;;;;;9.03;97.92;96633.16;5010039;28;20026;-78
2022/04/30 00:24:17;;;;;;;12.60;7.73;;;;;;;9.08;97.75;96633.53;5010801;28;20030;-78
2022/04/30 00:26:43;;;;;;;11.20;7.60;;;;;;;9.06;97.73;96643.38;5005166;28;20589;-78
2022/04/30 00:29:10;;;;;;;12.20;8.57;;;;;;;9.03;99.44;96641.03;4999137;28;20093;-78
2022/04/30 00:31:37;;;;;;;11.90;8.77;;;;;;;9.00;100.00;96634.25;5005798;28;20021;-78
2022/04/30 00:34:03;;;;;;;13.23;9.40;;;;;;;8.78;100.00;96635.34;5012387;28;20036;-78
2022/04/30 00:36:29;;;;;;;13.03;9.40;;;;;;;8.76;100.00;96636.47;5005660;28;20081;-78
2022/04/30 00:38:56;;;;;;;13.17;9.33;;;;;;;8.56;100.00;96636.47;5011439;28;20030;-78
2022/04/30 00:41:23;;;;;;;11.73;9.03;;;;;;;8.63;100.00;96632.31;5014015;28;20037;-78
2022/04/30 00:43:53;;;;;;;13.30;9.33;;;;;;;8.67;100.00;96633.69;5019920;28;20084;-78
2022/04/30 00:46:20;;;;;;;11.30;9.00;;;;;;;8.88;100.00;96632.72;5011313;28;20447;-78
2022/04/30 00:48:46;;;;;;;10.77;8.23;;;;;;;8.84;100.00;96632.19;5008773;28;20045;-78
2022/04/30 00:51:14;;;;;;;14.97;8.83;;;;;;;8.93;100.00;96618.25;5016684;28;20029;-78
2022/04/30 00:53:54;;;;;;;13.37;9.37;;;;;;;8.97;100.00;96618.78;4998718;28;20037;-77
2022/04/30 00:56:47;;;;;;;12.93;8.80;;;;;;;9.00;100.00;96621.13;5011570;28;20029;-78
2022/04/30 00:59:18;;;;;;;13.23;9.40;;;;;;;9.04;100.00;96619.88;4972932;28;20771;-78
2022/04/30 01:01:45;;;;;;;12.57;8.77;;;;;;;9.05;100.00;96613.66;5007606;28;20045;-78
2022/04/30 01:04:15;;;;;;;13.60;9.20;;;;;;;9.04;100.00;96622.50;4999459;28;20038;-78
2022/04/30 01:06:50;;;;;;;13.97;8.77;;;;;;;9.10;100.00;96614.06;5009124;28;20408;-78
2022/04/30 01:09:20;;;;;;;10.53;8.67;;;;;;;9.11;100.00;96614.91;5007262;28;20053;-77
2022/04/30 01:11:48;;;;;;;10.60;8.57;;;;;;;9.11;100.00;96615.72;5012123;28;20030;-78
2022/04/30 01:14:15;;;;;;;13.47;8.67;;;;;;;9.14;100.00;96610.19;5017520;28;20022;-78
2022/04/30 01:16:43;;;;;;;11.90;8.33;;;;;;;9.15;100.00;96611.88;5014863;28;20037;-78
2022/04/30 01:19:14;;;;;;;10.57;7.90;;;;;;;9.16;99.46;96618.75;5007785;28;20044;-78
2022/04/30 01:21:42;;;;;;;10.10;7.93;;;;;;;9.18;100.00;96611.56;5015659;28;20034;-78
2022/04/30 01:24:09;;;;;;;10.90;7.87;;;;;;;9.18;100.00;96613.34;4995176;28;20037;-78
2022/04/30 01:26:36;;;;;;;11.47;8.37;;;;;;;9.20;100.00;96604.38;5015451;28;20406;-77
2022/04/30 01:29:02;;;;;;;10.07;8.53;;;;;;;9.17;100.00;96604.66;5014217;28;20682;-78
2022/04/30 01:39:40;;;;;;;13.47;9.50;;;;;;;9.10;98.38;96587.84;5010917;28;20030;-78
2022/04/30 01:42:11;;;;;;;10.97;8.90;;;;;;;9.13;98.67;96587.56;5008330;28;20033;-78
2022/04/30 01:44:40;;;;;;;12.00;8.67;;;;;;;9.16;98.19;96582.03;5012902;28;20030;-78
2022/04/30 01:47:06;;;;;;;11.10;8.27;;;;;;;9.08;98.80;96584.50;5008461;28;20045;-78
2022/04/30 01:49:32;;;;;;;14.03;9.10;;;;;;;9.00;98.57;96584.41;5018538;28;20109;-78
2022/04/30 01:51:58;;;;;;;11.17;8.20;;;;;;;8.97;99.38;96577.63;5013254;28;20068;-78
2022/04/30 01:54:24;;;;;;;12.23;8.43;;;;;;;9.05;99.90;96574.31;4994064;28;20029;-78
2022/04/30 01:56:49;;;;;;;12.03;8.50;;;;;;;9.04;100.00;96577.91;5009957;28;20030;-78
2022/04/30 01:59:18;;;;;;;12.40;9.03;;;;;;;9.01;100.00;96574.75;5017862;28;20085;-78
2022/04/30 02:01:44;;;;;;;10.77;9.20;;;;;;;9.01;100.00;96574.75;5012323;28;20037;-78
2022/04/30 02:04:11;;;;;;;10.93;8.80;;;;;;;9.00;100.00;96571.28;4999433;28;20482;-77
2022/04/30 02:06:37;;;;;;;13.57;9.73;;;;;;;9.00;100.00;96575.72;5005121;28;20113;-78
2022/04/30 02:09:03;;;;;;;14.10;9.53;;;;;;;9.05;99.63;96568.22;5012563;28;20491;-78
2022/04/30 02:11:43;;;;;;;13.87;8.70;;;;;;;9.08;98.96;96568.78;5011903;28;20120;-78
2022/04/30 02:14:13;;;;;;;13.90;10.03;;;;;;;9.17;98.28;96581.06;5015189;28;20040;-78
2022/04/30 02:16:42;;;;;;;11.80;7.87;;;;;;;9.12;95.24;96569.31;5018718;28;20033;-78
2022/04/30 02:19:08;;;;;;;10.57;8.37;;;;;;;9.16;95.95;96568.91;4999020;28;20137;-78
2022/04/30 02:21:36;;;;;;;11.23;7.73;;;;;;;9.10;93.01;96561.59;5007297;28;20427;-78
2022/04/30 02:24:03;;;;;;;11.00;8.33;;;;;;;9.10;92.37;96553.72;5015074;28;20030;-78
2022/04/30 02:26:29;;;;;;;13.83;8.00;;;;;;;9.12;90.42;96554.44;5000834;28;20513;-78
2022/04/30 02:28:57;;;;;;;10.23;7.63;;;;;;;9.17;91.49;96554.00;5011442;28;20029;-78
2022/04/30 02:31:27;;;;;;;12.40;7.33;;;;;;;9.16;91.64;96547.91;5016351;28;20022;-78
2022/04/30 02:33:55;;;;;;;11.27;8.27;;;;;;;9.15;90.59;96541.03;5015402;28;20091;-78
2022/04/30 02:36:26;;;;;;;13.80;7.70;;;;;;;9.19;89.51;96542.38;5009921;28;20091;-78
2022/04/30 02:38:56;;;;;;;12.33;8.40;;;;;;;9.19;88.81;96539.75;5004717;28;20074;-78
2022/04/30 02:41:22;;;;;;;14.77;8.60;;;;;;;9.21;88.61;96539.59;5011828;28;20411;-78
2022/04/30 02:43:52;;;;;;;12.07;7.50;;;;;;;9.22;88.47;96541.25;5013594;28;20422;-78
2022/04/30 02:46:20;;;;;;;10.73;7.90;;;;;;;9.18;90.15;96532.84;5013630;28;20056;-78
2022/04/30 02:48:46;;;;;;;11.90;8.63;;;;;;;9.17;90.69;96530.38;5011355;28;20034;-78
2022/04/30 02:51:12;;;;;;;13.70;7.50;;;;;;;9.00;95.29;96534.56;5006650;28;20080;-78
2022/04/30 02:53:39;;;;;;;11.57;8.77;;;;;;;8.80;99.30;96528.53;5013732;28;20034;-78
2022/04/30 02:56:05;;;;;;;11.97;8.20;;;;;;;8.85;100.00;96525.47;5014190;28;20068;-78
2022/04/30 03:01:18;;;;;;;14.17;9.10;;;;;;;8.79;100.00;96526.88;5006448;28;20026;-78
2022/04/30 03:04:03;;;;;;;13.13;9.33;;;;;;;8.79;100.00;96526.06;5013654;28;20038;-78
2022/04/30 03:06:32;;;;;;;13.13;9.43;;;;;;;8.81;99.50;96519.69;5013476;28;20022;-78
2022/04/30 03:08:58;;;;;;;10.57;8.63;;;;;;;8.88;98.98;96517.31;5011559;28;20030;-78
2022/04/30 03:11:24;;;;;;;10.60;8.50;;;;;;;8.93;96.65;96509.88;5015958;28;20075;-78
2022/04/30 03:13:50;;;;;;;11.27;9.07;;;;;;;8.88;97.20;96512.09;4995959;28;20033;-78
2022/04/30 03:21:45;;;;;;;11.10;9.37;;;;;;;9.04;95.42;96509.69;5013612;28;20038;-78
2022/04/30 03:24:18;;;;;;;12.33;8.93;;;;;;;8.98;98.00;96510.25;5013715;28;20033;-78
2022/04/30 03:26:47;;;;;;;12.18;9.02;;;;;;;8.80;100.00;96525.91;5010808;28;20036;-78
2022/04/30 03:29:14;;;;;;;12.60;10.00;;;;;;;8.42;100.00;96530.22;5012250;28;20034;-78
2022/04/30 03:31:41;;;;;;;13.33;9.13;;;;;;;8.59;100.00;96522.63;5004866;28;20045;-78
2022/04/30 03:34:08;;;;;;;12.13;9.40;;;;;;;8.71;100.00;96524.94;5014668;28;20121;-78
2022/04/30 03:36:34;;;;;;;12.60;8.63;;;;;;;8.69;100.00;96520.84;5013117;28;20034;-77
2022/04/30 03:39:00;;;;;;;13.07;9.67;;;;;;;8.74;100.00;96523.84;5008571;28;20061;-77
2022/04/30 03:41:26;;;;;;;11.97;9.03;;;;;;;8.70;100.00;96533.78;5013328;28;20124;-78
2022/04/30 03:43:51;;;;;;;14.17;10.10;;;;;;;8.61;100.00;96533.78;5010632;28;20046;-78
2022/04/30 03:46:17;;;;;;;12.30;9.27;;;;;;;8.64;100.00;96529.09;5012951;28;20042;-78
2022/04/30 03:48:43;;;;;;;14.00;9.40;;;;;;;8.57;100.00;96538.50;5012600;28;20029;-78
2022/04/30 03:51:09;;;;;;;14.37;9.43;;;;;;;8.53;100.00;96544.16;5013505;28;20034;-77
2022/04/30 03:53:35;;;;;;;13.43;9.83;;;;;;;8.59;100.00;96543.63;5013200;28;20022;-78
2022/04/30 03:56:01;;;;;;;11.57;9.13;;;;;;;8.50;100.00;96550.50;5014020;28;20030;-77
2022/04/30 03:58:27;;;;;;;13.03;9.90;;;;;;;8.42;100.00;96545.97;5012671;28;20562;-77
2022/04/30 04:00:54;;;;;;;15.30;10.10;;;;;;;8.35;100.00;96555.31;5010619;28;20061;-77
2022/04/30 04:03:20;;;;;;;13.73;10.33;;;;;;;8.20;100.00;96557.50;5011816;28;20092;-77
2022/04/30 04:05:50;;;;;;;13.57;10.23;;;;;;;8.13;100.00;96561.63;5005933;28;20037;-78
2022/04/30 04:08:17;;;;;;;14.17;10.63;;;;;;;8.13;100.00;96561.63;5006290;28;20045;-78
2022/04/30 04:10:43;;;;;;;11.43;9.63;;;;;;;8.14;100.00;96558.03;5013162;28;20061;-78
2022/04/30 04:18:38;;;;;;;12.27;9.93;;;;;;;8.05;100.00;96564.09;5011443;28;20426;-78
2022/04/30 04:21:03;;;;;;;14.20;11.37;;;;;;;8.04;100.00;96562.44;4990489;28;20032;-77
2022/04/30 04:25:58;;;;;;;14.13;10.20;;;;;;;8.04;100.00;96563.25;5028695;28;20034;-77
2022/04/30 04:26:15;;;;;;;13.57;10.13;;;;;;;7.94;100.00;96561.59;4998214;28;20076;-77
2022/04/30 04:28:40;;;;;;;13.40;10.73;;;;;;;7.98;100.00;96566.44;5005812;28;20479;-78
2022/04/30 04:31:06;;;;;;;13.97;11.00;;;;;;;7.97;100.00;96574.41;5009211;28;20038;-78
2022/04/30 04:33:32;;;;;;;15.20;11.17;;;;;;;7.97;100.00;96572.63;5011548;28;20054;-77
2022/04/30 04:35:57;;;;;;;13.63;10.77;;;;;;;7.98;100.00;96570.81;5012565;28;20060;-78
2022/04/30 04:38:23;;;;;;;14.27;9.77;;;;;;;7.97;100.00;96577.03;5012352;28;20030;-77
2022/04/30 04:40:48;;;;;;;13.93;11.10;;;;;;;8.01;100.00;96576.66;5009822;28;20045;-77
2022/04/30 04:43:14;;;;;;;14.63;10.57;;;;;;;8.04;100.00;96581.59;5013686;28;20026;-78
2022/04/30 04:45:40;;;;;;;13.43;10.87;;;;;;;8.00;100.00;96587.25;5006396;28;20486;-78
2022/04/30 04:48:08;;;;;;;14.37;10.37;;;;;;;7.98;100.00;96583.91;5004352;28;20034;-78
2022/04/30 04:50:34;;;;;;;13.50;10.70;;;;;;;8.04;100.00;96589.44;5013042;28;20037;-78
2022/04/30 04:53:00;;;;;;;15.87;11.50;;;;;;;8.05;100.00;96595.53;5011502;28;20034;-78
2022/04/30 04:55:25;;;;;;;13.23;10.77;;;;;;;8.09;100.00;96596.09;4994187;28;20084;-79
2022/04/30 04:57:51;;;;;;;12.90;10.80;;;;;;;8.09;100.00;96596.09;5010879;28;20474;-78
2022/04/30 05:00:18;;;;;;;16.40;11.27;;;;;;;8.18;100.00;96595.25;5011566;28;20105;-77
2022/04/30 05:02:43;;;;;;;15.47;10.90;;;;;;;8.16;100.00;96587.56;5008235;28;20538;-78
2022/04/30 05:05:10;;;;;;;14.23;11.17;;;;;;;8.21;100.00;96598.44;5010455;28;20026;-77
2022/04/30 05:07:36;;;;;;;14.00;11.40;;;;;;;8.32;100.00;96602.75;5020053;28;21333;-78
2022/04/30 05:10:02;;;;;;;14.13;11.20;;;;;;;8.29;100.00;96602.19;5011640;28;20042;-78
2022/04/30 05:12:28;;;;;;;20.93;13.23;;;;;;;8.39;100.00;96598.66;5002299;28;20026;-78
2022/04/30 05:14:54;;;;;;;13.87;11.97;;;;;;;8.45;100.00;96602.50;5009120;28;20040;-77
2022/04/30 05:17:19;;;;;;;17.17;11.80;;;;;;;8.45;100.00;96610.34;5010393;28;20030;-77
2022/04/30 05:19:45;;;;;;;19.20;12.47;;;;;;;8.54;100.00;96614.78;5027653;28;20049;-78
2022/04/30 05:22:11;;;;;;;17.53;12.33;;;;;;;8.52;100.00;96614.13;5011684;28;20030;-78
2022/04/30 05:24:37;;;;;;;17.07;13.47;;;;;;;8.62;100.00;96614.13;5010058;28;20045;-78
2022/04/30 05:27:03;;;;;;;17.47;13.37;;;;;;;8.72;100.00;96610.53;5013486;28;20044;-78
2022/04/30 05:29:29;;;;;;;17.37;12.90;;;;;;;8.74;100.00;96603.34;5009613;28;20029;-78
2022/04/30 05:31:55;;;;;;;21.33;13.50;;;;;;;8.82;100.00;96610.53;5012752;28;20653;-78
2022/04/30 05:34:20;;;;;;;19.40;15.13;;;;;;;8.82;100.00;96612.28;5014760;28;20041;-78
2022/04/30 05:36:46;;;;;;;20.73;13.87;;;;;;;8.87;100.00;96612.72;5010444;28;20038;-78
2022/04/30 05:39:12;;;;;;;20.03;15.00;;;;;;;8.85;100.00;96619.88;5015151;28;20375;-78
2022/04/30 05:41:38;;;;;;;18.10;14.27;;;;;;;8.96;100.00;96611.91;5014432;28;20037;-78
2022/04/30 05:44:04;;;;;;;20.97;15.03;;;;;;;8.90;100.00;96621.13;5012480;28;20581;-77
2022/04/30 05:46:29;;;;;;;17.83;15.73;;;;;;;8.93;100.00;96615.63;5015592;28;20033;-77
2022/04/30 05:48:55;;;;;;;22.90;16.57;;;;;;;9.04;100.00;96609.38;5014884;28;20118;-77
2022/04/30 05:51:21;;;;;;;19.87;14.67;;;;;;;9.08;100.00;96621.25;5014503;28;20549;-77
2022/04/30 05:53:46;;;;;;;24.77;15.83;;;;;;;9.12;100.00;96617.41;5012512;28;20033;-77
2022/04/30 05:56:12;;;;;;;20.27;16.30;;;;;;;9.15;100.00;96625.00;4996897;28;20376;-78
2022/04/30 05:58:38;;;;;;;20.40;15.80;;;;;;;9.31;100.00;96626.19;5014372;28;20100;-77
2022/04/30 06:01:04;;;;;;;19.30;14.67;;;;;;;9.46;100.00;96627.41;4996809;28;20084;-79
2022/04/30 06:03:32;;;;;;;18.70;14.77;;;;;;;9.48;100.00;96630.69;4997165;28;20036;-77
2022/04/30 06:05:58;;;;;;;19.67;14.87;;;;;;;9.61;100.00;96635.63;4970239;28;20085;-77
2022/04/30 06:08:24;;;;;;;24.67;15.87;;;;;;;9.53;100.00;96638.16;4980043;28;20052;-77
2022/04/30 06:10:49;;;;;;;19.63;15.50;;;;;;;9.67;100.00;96633.25;4987250;28;20034;-77
2022/04/30 06:13:15;;;;;;;18.63;15.00;;;;;;;9.74;100.00;96646.66;4999453;28;20049;-77
2022/04/30 06:15:41;;;;;;;22.03;15.20;;;;;;;9.84;100.00;96642.19;5005946;28;20025;-77
2022/04/30 06:18:08;;;;;;;29.10;21.37;;;;;;;9.89;100.00;96641.75;5004099;28;20045;-77
2022/04/30 06:20:34;;;;;;;26.30;20.57;;;;;;;9.94;100.00;96644.78;4992722;28;20112;-76
2022/04/30 06:23:00;;;;;;;24.57;17.53;;;;;;;10.23;100.00;96643.78;4983765;28;20037;-77
2022/04/30 06:25:26;;;;;;;18.67;14.57;;;;;;;10.09;100.00;96653.84;4992040;28;20037;-76
2022/04/30 06:27:52;;;;;;;17.50;13.47;;;;;;;10.15;100.00;96647.16;4998503;28;20045;-77
2022/04/30 06:30:18;;;;;;;16.17;14.00;;;;;;;10.12;100.00;96644.81;5007059;28;20038;-77
2022/04/30 06:32:43;;;;;;;15.60;12.90;;;;;;;10.17;100.00;96644.41;5005775;28;21282;-78
2022/04/30 06:35:09;;;;;;;18.23;14.57;;;;;;;10.34;100.00;96643.63;5006841;28;20037;-75
2022/04/30 06:37:35;;;;;;;15.80;13.23;;;;;;;10.40;100.00;96645.69;5005777;28;20045;-79
2022/04/30 06:40:01;;;;;;;19.37;14.67;;;;;;;10.51;100.00;96647.25;5000117;28;20034;-79
2022/04/30 06:42:26;;;;;;;19.47;13.93;;;;;;;10.34;100.00;96641.00;5013553;28;20432;-79
2022/04/30 06:44:52;;;;;;;16.23;12.83;;;;;;;10.57;100.00;96650.13;5007174;28;20046;-79
2022/04/30 06:47:21;;;;;;;18.90;14.37;;;;;;;10.42;100.00;96646.34;5014662;28;20487;-79
2022/04/30 06:49:47;;;;;;;17.57;13.43;;;;;;;10.54;100.00;96647.78;5011459;28;20021;-79
2022/04/30 06:52:12;;;;;;;18.27;14.20;;;;;;;10.64;100.00;96642.47;5007873;28;20033;-80
2022/04/30 06:57:22;;;;;;;19.43;13.83;;;;;;;10.78;100.00;96644.56;5009111;28;20029;-80
2022/04/30 06:59:52;;;;;;;18.10;13.27;;;;;;;10.79;100.00;96635.69;5008643;28;20029;-79
2022/04/30 07:02:25;;;;;;;17.07;12.77;;;;;;;11.00;100.00;96637.19;5011565;28;20030;-79
2022/04/30 07:04:52;;;;;;;14.73;12.90;;;;;;;11.00;100.00;96638.03;5012892;28;20113;-79
2022/04/30 07:07:19;;;;;;;16.57;12.87;;;;;;;11.07;100.00;96644.34;5011734;28;20029;-78
2022/04/30 07:09:45;;;;;;;15.20;12.03;;;;;;;11.20;100.00;96643.94;5012765;28;20117;-82
2022/04/30 07:12:13;;;;;;;14.13;11.87;;;;;;;11.52;100.00;96643.34;5008141;28;20074;-81
2022/04/30 07:14:40;;;;;;;14.83;11.77;;;;;;;11.51;100.00;96644.31;5014447;28;20029;-81
2022/04/30 07:17:08;;;;;;;15.60;11.67;;;;;;;11.71;100.00;96644.94;4994162;28;20534;-78
2022/04/30 07:19:34;;;;;;;14.70;11.70;;;;;;;11.73;100.00;96647.41;5012639;28;20073;-80
2022/04/30 07:22:01;;;;;;;15.87;11.90;;;;;;;11.61;100.00;96652.13;5015107;28;20104;-80
2022/04/30 07:24:27;;;;;;;15.00;11.70;;;;;;;11.51;100.00;96651.41;5014341;28;20025;-81
2022/04/30 07:26:53;;;;;;;17.07;11.53;;;;;;;11.73;100.00;96647.41;5018502;28;20030;-80
2022/04/30 07:29:19;;;;;;;15.07;11.30;;;;;;;11.94;100.00;96647.91;5016374;28;20056;-80
2022/04/30 07:31:45;;;;;;;15.10;10.70;;;;;;;11.83;100.00;96648.13;5017413;28;20022;-81
2022/04/30 07:34:12;;;;;;;15.77;11.50;;;;;;;11.95;100.00;96638.19;5015205;28;20026;-81
2022/04/30 07:36:39;;;;;;;15.23;11.40;;;;;;;12.30;100.00;96639.78;5015622;28;20032;-81
2022/04/30 07:39:05;;;;;;;12.60;10.00;;;;;;;12.39;100.00;96641.47;5016176;28;20553;-81
2022/04/30 07:41:31;;;;;;;13.37;10.43;;;;;;;12.38;100.00;96633.72;5001971;28;20042;-81
2022/04/30 07:43:57;;;;;;;13.43;10.40;;;;;;;12.61;99.40;96628.66;5018639;28;20411;-82
2022/04/30 07:46:22;;;;;;;17.67;10.50;;;;;;;13.18;96.10;96634.81;5014020;28;20022;-81
2022/04/30 07:48:49;;;;;;;15.80;12.83;;;;;;;13.58;94.43;96622.59;5014930;28;20029;-82
2022/04/30 07:51:18;;;;;;;17.13;10.23;;;;;;;13.56;95.52;96623.75;5018002;28;20025;-83
2022/04/30 07:53:45;;;;;;;14.43;10.23;;;;;;;13.17;95.34;96630.50;5014840;28;20042;-85
2022/04/30 07:56:11;;;;;;;14.80;9.93;;;;;;;13.47;93.23;96625.56;5010393;28;20037;-81
2022/04/30 07:58:38;;;;;;;13.70;10.30;;;;;;;13.53;93.32;96635.47;5017124;28;20045;-82
2022/04/30 08:01:04;;;;;;;14.90;10.37;;;;;;;13.50;91.84;96629.69;5019593;28;20034;-82
2022/04/30 08:03:30;;;;;;;13.37;10.00;;;;;;;13.39;93.58;96639.63;5016146;28;20080;-81
2022/04/30 08:05:55;;;;;;;26.40;20.90;;;;;;;13.46;93.71;96633.69;5007179;28;20022;-82
2022/04/30 08:08:21;;;;;;;15.17;11.50;;;;;;;13.24;94.62;96638.63;5005657;28;20029;-76
2022/04/30 08:10:47;;;;;;;12.83;10.53;;;;;;;13.02;96.72;96640.09;5035406;28;20038;-80
2022/04/30 08:13:12;;;;;;;14.40;10.77;;;;;;;13.15;95.98;96647.53;5017398;28;20052;-80
2022/04/30 08:15:47;;;;;;;19.37;14.93;;;;;;;12.93;95.72;96643.72;5036590;28;20041;-80
2022/04/30 08:18:13;;;;;;;17.40;10.37;;;;;;;13.01;96.05;96637.59;5021684;28;20029;-80
2022/04/30 08:20:39;;;;;;;15.87;10.07;;;;;;;12.77;99.00;96644.50;5003658;28;20513;-80
2022/04/30 08:23:08;;;;;;;13.50;10.03;;;;;;;13.26;95.46;96639.31;5001925;28;20438;-80
2022/04/30 08:25:35;;;;;;;16.07;10.83;;;;;;;12.82;96.25;96646.69;5008048;28;20026;-80
2022/04/30 08:28:04;;;;;;;16.23;10.50;;;;;;;12.78;98.67;96643.53;5046780;28;20410;-80
2022/04/30 08:30:31;;;;;;;13.00;10.47;;;;;;;12.92;97.16;96636.78;4999826;28;20148;-79
2022/04/30 08:32:57;;;;;;;14.90;10.97;;;;;;;13.10;96.89;96639.28;5020484;28;20049;-79
2022/04/30 08:35:23;;;;;;;12.80;10.60;;;;;;;13.36;95.09;96633.84;5015814;28;20038;-80
2022/04/30 08:37:49;;;;;;;13.63;10.23;;;;;;;13.54;92.99;96633.66;5007895;28;20057;-80
2022/04/30 08:40:16;;;;;;;15.70;11.90;;;;;;;13.63;93.60;96630.00;5030782;28;20033;-79
2022/04/30 08:42:42;;;;;;;17.00;12.80;;;;;;;14.30;89.68;96626.97;5019948;28;20120;-80
2022/04/30 08:45:09;;;;;;;13.63;10.50;;;;;;;15.13;83.76;96628.13;5019351;28;20065;-80
2022/04/30 08:47:43;;;;;;;14.53;11.50;;;;;;;15.53;74.86;96624.31;5019877;28;20068;-80
2022/04/30 08:50:10;;;;;;;12.73;10.10;;;;;;;16.41;73.66;96626.13;5019857;28;20045;-81
2022/04/30 08:52:37;;;;;;;15.43;10.50;;;;;;;16.69;70.72;96622.75;5019664;28;20092;-81
2022/04/30 08:55:04;;;;;;;14.77;10.30;;;;;;;16.72;65.64;96619.72;5027437;28;20050;-80
2022/04/30 08:57:30;;;;;;;16.30;9.83;;;;;;;16.67;64.87;96624.81;5030250;28;20034;-80
2022/04/30 08:59:56;;;;;;;14.10;10.70;;;;;;;17.34;62.02;96607.69;5026539;28;20033;-82
2022/04/30 09:02:22;;;;;;;13.90;10.07;;;;;;;16.97;63.16;96620.25;5018046;28;20037;-80
2022/04/30 09:04:49;;;;;;;17.65;13.10;;;;;;;17.98;61.67;96620.00;5018671;28;20105;-80
2022/04/30 09:07:20;;;;;;;14.57;10.07;;;;;;;17.06;62.33;96618.25;5010601;28;20042;-80
2022/04/30 09:10:06;;;;;;;14.15;10.60;;;;;;;17.80;59.13;96623.16;5020483;28;20505;-80
2022/04/30 09:12:33;;;;;;;12.65;9.68;;;;;;;17.82;60.04;96605.19;5010215;28;20046;-80
2022/04/30 09:14:59;;;;;;;20.67;9.65;;;;;;;17.59;58.78;96610.72;5015851;28;20037;-80
2022/04/30 09:17:27;;;;;;;11.85;10.10;;;;;;;17.50;59.13;96610.03;5003746;28;20133;-79
2022/04/30 09:19:54;;;;;;;15.73;9.68;;;;;;;18.33;56.06;96604.81;5015298;28;20038;-80
2022/04/30 09:22:29;;;;;;;11.07;9.20;;;;;;;17.73;58.37;96601.81;5001145;28;20117;-80
2022/04/30 09:24:55;;;;;;;14.40;10.45;;;;;;;18.39;56.47;96606.69;5015103;28;20110;-80
2022/04/30 09:27:21;;;;;;;15.85;11.10;;;;;;;18.41;57.57;96609.13;5017689;28;20104;-80
2022/04/30 09:29:46;;;;;;;17.73;12.95;;;;;;;17.64;59.61;96614.44;5014993;28;20490;-80
2022/04/30 09:32:17;;;;;;;14.23;11.82;;;;;;;18.31;55.83;96609.53;5017232;28;20093;-80
2022/04/30 09:40:16;;;;;;;11.50;10.30;;;;;;;18.19;54.19;96598.63;5037585;28;20042;-80
2022/04/30 09:42:43;;;;;;;14.02;10.23;;;;;;;18.22;57.32;96611.53;5018367;28;20042;-80
2022/04/30 09:45:21;;;;;;;12.55;10.05;;;;;;;17.40;59.34;96612.22;5008147;28;20022;-80
2022/04/30 09:47:48;;;;;;;13.25;10.30;;;;;;;16.98;63.44;96610.44;5019069;28;20057;-79
2022/04/30 09:55:52;;;;;;;16.33;13.70;;;;;;;15.86;84.75;96608.91;5014562;28;20072;-79
2022/04/30 09:58:24;;;;;;;20.02;14.35;;;;;;;15.91;84.83;96611.81;5011587;28;20038;-79
2022/04/30 10:00:54;;;;;;;17.35;12.75;;;;;;;16.09;84.93;96621.22;5017472;28;20026;-79
2022/04/30 10:03:28;;;;;;;16.30;13.38;;;;;;;15.91;83.29;96613.66;5011385;28;20092;-79
2022/04/30 10:06:02;;;;;;;18.33;14.10;;;;;;;15.44;84.77;96610.28;5017851;28;20042;-79
2022/04/30 10:08:34;;;;;;;21.45;14.65;;;;;;;15.59;88.98;96606.81;5020623;28;20030;-80
2022/04/30 10:11:26;;;;;;;16.83;13.82;;;;;;;16.45;82.57;96608.81;5038695;28;20034;-80
2022/04/30 10:14:31;;;;;;;17.60;13.18;;;;;;;17.27;74.77;96602.31;5015684;28;20032;-81
2022/04/30 10:17:13;;;;;;;17.42;12.50;;;;;;;16.81;75.34;96597.41;4967975;28;20081;-79
2022/04/30 10:19:57;;;;;;;17.73;12.77;;;;;;;17.23;72.55;96610.84;5005438;28;20061;-79
2022/04/30 10:22:23;;;;;;;16.13;12.07;;;;;;;16.97;75.85;96617.59;5016196;28;20033;-79
2022/04/30 10:24:50;;;;;;;15.98;12.60;;;;;;;17.03;74.75;96611.47;5017652;28;20061;-79
2022/04/30 10:27:17;;;;;;;16.58;12.20;;;;;;;17.56;72.48;96600.47;5018640;28;20044;-79
2022/04/30 10:29:57;;;;;;;16.35;12.23;;;;;;;17.64;68.50;96598.50;5018708;28;20471;-79
2022/04/30 10:32:34;;;;;;;16.77;12.27;;;;;;;17.29;72.49;96594.13;5017284;28;20029;-79
2022/04/30 10:35:00;;;;;;;16.15;12.05;;;;;;;17.87;66.56;96594.75;5017235;28;20398;-79
2022/04/30 10:37:34;;;;;;;14.65;12.30;;;;;;;17.97;65.63;96597.06;5033341;28;20053;-79
2022/04/30 10:40:09;;;;;;;15.82;12.02;;;;;;;18.27;63.18;96592.28;5018531;28;20037;-79
2022/04/30 10:42:42;;;;;;;15.85;12.15;;;;;;;18.94;60.82;96583.47;5016244;28;20051;-79
2022/04/30 10:45:13;;;;;;;37.38;24.65;;;;;;;19.12;59.58;96585.56;5000350;28;20100;-78
2022/04/30 10:47:55;;;;;;;32.60;18.77;;;;;;;18.90;60.54;96582.25;4999855;28;20121;-79
2022/04/30 10:50:22;;;;;;;21.98;14.45;;;;;;;19.11;60.74;96580.44;5016076;28;20044;-77
2022/04/30 10:52:49;;;;;;;13.88;11.07;;;;;;;19.72;56.17;96574.91;4998889;28;20116;-79
2022/04/30 10:55:17;;;;;;;16.90;11.93;;;;;;;19.75;56.40;96583.31;5032119;28;20030;-79
2022/04/30 10:57:44;;;;;;;15.35;12.30;;;;;;;20.79;53.31;96570.78;5016364;28;20479;-79
2022/04/30 11:00:11;;;;;;;15.90;12.15;;;;;;;19.99;54.20;96571.13;5017068;28;20034;-79
2022/04/30 11:02:37;;;;;;;16.60;12.27;;;;;;;20.68;51.72;96558.91;5015982;28;20046;-79
2022/04/30 11:05:03;;;;;;;13.80;11.45;;;;;;;19.70;53.34;96567.09;5015867;28;20038;-79
2022/04/30 11:07:31;;;;;;;17.38;13.50;;;;;;;20.22;52.54;96564.44;5002577;28;20062;-79
2022/04/30 11:09:58;;;;;;;16.40;11.95;;;;;;;20.72;51.78;96559.28;5005391;28;20041;-78
2022/04/30 11:12:30;;;;;;;16.63;10.48;;;;;;;20.59;51.60;96559.38;5036758;28;20419;-79
2022/04/30 11:14:57;;;;;;;15.63;12.85;;;;;;;20.20;53.23;96562.00;5011831;28;20026;-75
2022/04/30 11:17:24;;;;;;;17.40;13.52;;;;;;;19.33;52.96;96571.22;5014768;28;20036;-79
2022/04/30 11:19:51;;;;;;;14.13;11.77;;;;;;;19.15;54.97;96563.00;5011238;28;20044;-78
2022/04/30 11:22:17;;;;;;;16.10;12.80;;;;;;;19.32;54.00;96572.25;5016160;28;20038;-78
2022/04/30 11:24:43;;;;;;;16.83;13.65;;;;;;;18.20;57.91;96570.97;5033119;28;20056;-78
2022/04/30 11:27:10;;;;;;;16.20;12.32;;;;;;;18.58;59.77;96573.97;5015822;28;20482;-79
2022/04/30 11:29:37;;;;;;;16.48;13.38;;;;;;;17.40;66.21;96585.63;5015942;28;20030;-79
2022/04/30 11:32:05;;;;;;;18.67;13.13;;;;;;;16.92;69.54;96582.78;5023978;28;20126;-79
2022/04/30 11:34:31;;;;;;;17.08;12.15;;;;;;;16.77;76.94;96589.97;5013896;28;20479;-80
2022/04/30 11:36:58;;;;;;;16.15;13.23;;;;;;;15.79;86.46;96595.56;4997783;28;20037;-76
2022/04/30 11:39:25;;;;;;;19.30;13.50;;;;;;;15.66;85.96;96597.13;5004623;28;20080;-76
2022/04/30 11:41:55;;;;;;;15.32;11.15;;;;;;;14.73;91.58;96595.66;5011786;28;20403;-78
2022/04/30 11:44:26;;;;;;;17.75;12.93;;;;;;;14.66;100.00;96605.31;5011404;28;20040;-76
2022/04/30 11:46:53;;;;;;;29.38;25.23;;;;;;;13.78;100.00;96616.91;5011748;28;20475;-76
2022/04/30 11:49:24;;;;;;;18.88;15.25;;;;;;;13.69;100.00;96624.06;5011718;28;20021;-77
2022/04/30 11:52:00;;;;;;;23.15;16.17;;;;;;;13.46;100.00;96621.28;5009974;28;20125;-76
2022/04/30 11:54:28;;;;;;;34.95;23.33;;;;;;;12.58;100.00;96637.72;4999954;28;20037;-76
2022/04/30 11:56:56;;;;;;;23.23;17.60;;;;;;;12.31;100.00;96628.28;5008630;28;20484;-76
2022/04/30 11:59:30;;;;;;;22.47;18.47;;;;;;;12.20;100.00;96632.00;5009422;28;20069;-76